createdAt,value
2023-09-08T00:00:27.169Z,1006.65
2023-09-08T00:01:27.148Z,1006.64
2023-09-08T00:02:27.378Z,1006.63
2023-09-08T00:03:27.151Z,1006.61
2023-09-08T00:04:27.218Z,1006.61
2023-09-08T00:05:27.086Z,1006.57
2023-09-08T00:06:27.094Z,1006.56
2023-09-08T00:07:27.106Z,1006.55
2023-09-08T00:08:27.063Z,1006.55
2023-09-08T00:09:27.083Z,1006.53
2023-09-08T00:10:27.040Z,1006.51
2023-09-08T00:11:27.057Z,1006.51
2023-09-08T00:12:27.030Z,1006.51
2023-09-08T00:13:27.010Z,1006.50
2023-09-08T00:14:27.003Z,1006.50
2023-09-08T00:15:26.987Z,1006.51
2023-09-08T00:16:27.105Z,1006.52
2023-09-08T00:17:27.004Z,1006.52
2023-09-08T00:18:26.950Z,1006.51
2023-09-08T00:19:27.026Z,1006.49
2023-09-08T00:20:26.951Z,1006.49
2023-09-08T00:21:26.927Z,1006.48
2023-09-08T00:22:26.925Z,1006.48
2023-09-08T00:23:26.887Z,1006.47
2023-09-08T00:24:26.888Z,1006.47
2023-09-08T00:25:26.882Z,1006.46
2023-09-08T00:26:26.885Z,1006.46
2023-09-08T00:27:26.890Z,1006.47
2023-09-08T00:28:26.918Z,1006.47
2023-09-08T00:29:26.868Z,1006.47
2023-09-08T00:30:26.850Z,1006.48
2023-09-08T00:31:26.823Z,1006.48
2023-09-08T00:32:26.926Z,1006.48
2023-09-08T00:33:26.905Z,1006.47
2023-09-08T00:34:26.798Z,1006.47
2023-09-08T00:35:26.837Z,1006.46
2023-09-08T00:36:26.793Z,1006.46
2023-09-08T00:37:26.749Z,1006.47
2023-09-08T00:38:26.795Z,1006.46
2023-09-08T00:39:26.730Z,1006.46
2023-09-08T00:40:26.739Z,1006.45
2023-09-08T00:41:26.751Z,1006.44
2023-09-08T00:42:26.722Z,1006.45
2023-09-08T00:43:26.709Z,1006.44
2023-09-08T00:44:26.680Z,1006.42
2023-09-08T00:45:26.775Z,1006.41
2023-09-08T00:46:26.751Z,1006.42
2023-09-08T00:47:26.726Z,1006.42
2023-09-08T00:48:26.691Z,1006.42
2023-09-08T00:49:26.583Z,1006.41
2023-09-08T00:50:26.664Z,1006.40
2023-09-08T00:51:26.667Z,1006.41
2023-09-08T00:52:26.627Z,1006.42
2023-09-08T00:53:26.603Z,1006.42
2023-09-08T00:54:26.608Z,1006.41
2023-09-08T00:55:26.572Z,1006.42
2023-09-08T00:56:26.568Z,1006.42
2023-09-08T00:57:26.548Z,1006.43
2023-09-08T00:58:26.577Z,1006.42
2023-09-08T00:59:26.570Z,1006.41
2023-09-08T01:00:26.519Z,1006.41
2023-09-08T01:01:26.575Z,1006.41
2023-09-08T01:02:26.617Z,1006.40
2023-09-08T01:03:26.600Z,1006.41
2023-09-08T01:04:26.588Z,1006.39
2023-09-08T01:05:26.482Z,1006.38
2023-09-08T01:06:26.456Z,1006.39
2023-09-08T01:07:26.434Z,1006.39
2023-09-08T01:08:26.444Z,1006.38
2023-09-08T01:09:26.546Z,1006.38
2023-09-08T01:10:26.426Z,1006.39
2023-09-08T01:11:26.409Z,1006.38
2023-09-08T01:12:26.387Z,1006.37
2023-09-08T01:13:26.390Z,1006.37
2023-09-08T01:14:26.394Z,1006.36
2023-09-08T01:15:26.391Z,1006.36
2023-09-08T01:16:26.393Z,1006.37
2023-09-08T01:17:26.380Z,1006.37
2023-09-08T01:18:26.432Z,1006.39
2023-09-08T01:19:26.350Z,1006.40
2023-09-08T01:20:26.312Z,1006.41
2023-09-08T01:21:26.336Z,1006.43
2023-09-08T01:22:26.291Z,1006.43
2023-09-08T01:23:26.272Z,1006.43
2023-09-08T01:24:26.324Z,1006.43
2023-09-08T01:25:26.269Z,1006.44
2023-09-08T01:26:26.255Z,1006.45
2023-09-08T01:27:26.253Z,1006.46
2023-09-08T01:28:26.262Z,1006.45
2023-09-08T01:29:26.219Z,1006.45
2023-09-08T01:30:26.234Z,1006.45
2023-09-08T01:31:26.289Z,1006.45
2023-09-08T01:32:26.210Z,1006.44
2023-09-08T01:33:26.183Z,1006.44
2023-09-08T01:34:26.232Z,1006.43
2023-09-08T01:35:26.179Z,1006.42
2023-09-08T01:36:26.170Z,1006.41
2023-09-08T01:37:26.158Z,1006.40
2023-09-08T01:38:26.155Z,1006.39
2023-09-08T01:39:26.128Z,1006.39
2023-09-08T01:40:26.126Z,1006.38
2023-09-08T01:41:26.101Z,1006.37
2023-09-08T01:42:26.106Z,1006.36
2023-09-08T01:43:26.087Z,1006.35
2023-09-08T01:44:26.151Z,1006.35
2023-09-08T01:45:26.081Z,1006.35
2023-09-08T01:46:26.134Z,1006.33
2023-09-08T01:47:26.170Z,1006.33
2023-09-08T01:48:26.027Z,1006.34
2023-09-08T01:49:26.049Z,1006.35
2023-09-08T01:50:26.024Z,1006.33
2023-09-08T01:51:25.990Z,1006.34
2023-09-08T01:52:25.978Z,1006.33
2023-09-08T01:53:25.997Z,1006.33
2023-09-08T01:54:25.963Z,1006.34
2023-09-08T01:55:25.947Z,1006.34
2023-09-08T01:56:25.971Z,1006.32
2023-09-08T01:57:25.952Z,1006.32
2023-09-08T01:58:26.005Z,1006.31
2023-09-08T01:59:25.910Z,1006.30
2023-09-08T02:00:25.911Z,1006.28
2023-09-08T02:01:25.911Z,1006.27
2023-09-08T02:02:25.908Z,1006.27
2023-09-08T02:03:25.865Z,1006.25
2023-09-08T02:04:25.888Z,1006.25
2023-09-08T02:05:26.018Z,1006.25
2023-09-08T02:06:25.836Z,1006.25
2023-09-08T02:07:25.905Z,1006.25
2023-09-08T02:08:25.862Z,1006.24
2023-09-08T02:09:25.804Z,1006.24
2023-09-08T02:10:25.787Z,1006.24
2023-09-08T02:11:25.780Z,1006.24
2023-09-08T02:12:25.782Z,1006.22
2023-09-08T02:13:25.766Z,1006.22
2023-09-08T02:14:25.765Z,1006.21
2023-09-08T02:15:25.827Z,1006.20
2023-09-08T02:16:25.865Z,1006.19
2023-09-08T02:17:25.723Z,1006.17
2023-09-08T02:18:25.761Z,1006.16
2023-09-08T02:19:25.744Z,1006.15
2023-09-08T02:20:25.693Z,1006.13
2023-09-08T02:21:25.721Z,1006.15
2023-09-08T02:22:25.714Z,1006.14
2023-09-08T02:23:25.659Z,1006.14
2023-09-08T02:24:25.704Z,1006.15
2023-09-08T02:25:25.652Z,1006.15
2023-09-08T02:26:25.617Z,1006.16
2023-09-08T02:27:25.614Z,1006.15
2023-09-08T02:28:25.694Z,1006.15
2023-09-08T02:29:25.617Z,1006.14
2023-09-08T02:30:25.666Z,1006.14
2023-09-08T02:31:25.576Z,1006.14
2023-09-08T02:32:25.577Z,1006.14
2023-09-08T02:33:25.630Z,1006.14
2023-09-08T02:34:25.595Z,1006.15
2023-09-08T02:35:25.660Z,1006.16
2023-09-08T02:36:25.551Z,1006.16
2023-09-08T02:37:25.510Z,1006.18
2023-09-08T02:38:25.515Z,1006.19
2023-09-08T02:39:25.572Z,1006.19
2023-09-08T02:40:25.509Z,1006.22
2023-09-08T02:41:25.471Z,1006.23
2023-09-08T02:42:25.547Z,1006.23
2023-09-08T02:43:25.454Z,1006.22
2023-09-08T02:44:25.426Z,1006.24
2023-09-08T02:45:25.459Z,1006.26
2023-09-08T02:46:25.433Z,1006.27
2023-09-08T02:47:25.397Z,1006.26
2023-09-08T02:48:25.402Z,1006.26
2023-09-08T02:49:25.472Z,1006.27
2023-09-08T02:50:25.365Z,1006.28
2023-09-08T02:51:25.481Z,1006.29
2023-09-08T02:52:25.401Z,1006.29
2023-09-08T02:53:25.333Z,1006.28
2023-09-08T02:54:25.370Z,1006.28
2023-09-08T02:55:25.348Z,1006.26
2023-09-08T02:56:25.343Z,1006.26
2023-09-08T02:57:25.326Z,1006.26
2023-09-08T02:58:25.288Z,1006.26
2023-09-08T02:59:25.281Z,1006.26
2023-09-08T03:00:25.255Z,1006.24
2023-09-08T03:01:25.335Z,1006.24
2023-09-08T03:02:25.396Z,1006.25
2023-09-08T03:03:25.347Z,1006.26
2023-09-08T03:04:25.256Z,1006.25
2023-09-08T03:05:25.216Z,1006.25
2023-09-08T03:06:25.221Z,1006.25
2023-09-08T03:07:25.234Z,1006.25
2023-09-08T03:08:25.199Z,1006.24
2023-09-08T03:09:25.253Z,1006.23
2023-09-08T03:10:25.171Z,1006.23
2023-09-08T03:11:25.188Z,1006.23
2023-09-08T03:12:25.134Z,1006.23
2023-09-08T03:13:25.141Z,1006.24
2023-09-08T03:14:25.137Z,1006.24
2023-09-08T03:15:25.164Z,1006.23
2023-09-08T03:16:25.185Z,1006.24
2023-09-08T03:17:25.138Z,1006.24
2023-09-08T03:18:25.074Z,1006.24
2023-09-08T03:19:25.090Z,1006.24
2023-09-08T03:20:25.149Z,1006.23
2023-09-08T03:21:25.054Z,1006.22
2023-09-08T03:22:25.031Z,1006.22
2023-09-08T03:23:25.073Z,1006.21
2023-09-08T03:24:25.044Z,1006.20
2023-09-08T03:25:25.029Z,1006.21
2023-09-08T03:26:25.012Z,1006.22
2023-09-08T03:27:25.055Z,1006.21
2023-09-08T03:28:25.035Z,1006.22
2023-09-08T03:29:25.034Z,1006.22
2023-09-08T03:30:24.960Z,1006.21
2023-09-08T03:31:25.039Z,1006.19
2023-09-08T03:32:25.069Z,1006.19
2023-09-08T03:33:25.011Z,1006.19
2023-09-08T03:34:24.976Z,1006.20
2023-09-08T03:35:24.924Z,1006.20
2023-09-08T03:36:24.925Z,1006.19
2023-09-08T03:37:24.935Z,1006.18
2023-09-08T03:38:24.864Z,1006.17
2023-09-08T03:39:24.886Z,1006.16
2023-09-08T03:40:24.880Z,1006.15
2023-09-08T03:41:24.900Z,1006.16
2023-09-08T03:42:24.824Z,1006.16
2023-09-08T03:43:24.875Z,1006.16
2023-09-08T03:44:24.855Z,1006.15
2023-09-08T03:45:24.827Z,1006.14
2023-09-08T03:46:24.905Z,1006.13
2023-09-08T03:47:24.864Z,1006.11
2023-09-08T03:48:24.774Z,1006.10
2023-09-08T03:49:24.765Z,1006.09
2023-09-08T03:50:24.772Z,1006.08
2023-09-08T03:51:24.746Z,1006.07
2023-09-08T03:52:24.724Z,1006.07
2023-09-08T03:53:24.771Z,1006.06
2023-09-08T03:54:24.701Z,1006.06
2023-09-08T03:55:24.712Z,1006.06
2023-09-08T03:56:24.739Z,1006.06
2023-09-08T03:57:24.675Z,1006.07
2023-09-08T03:58:24.653Z,1006.08
2023-09-08T03:59:24.681Z,1006.09
2023-09-08T04:00:24.682Z,1006.09
2023-09-08T04:01:24.728Z,1006.08
2023-09-08T04:02:24.693Z,1006.08
2023-09-08T04:03:24.778Z,1006.08
2023-09-08T04:04:24.599Z,1006.07
2023-09-08T04:05:24.665Z,1006.05
2023-09-08T04:06:25.438Z,1006.05
2023-09-08T04:07:24.650Z,1006.04
2023-09-08T04:08:24.602Z,1006.03
2023-09-08T04:09:24.691Z,1006.03
2023-09-08T04:10:24.566Z,1006.03
2023-09-08T04:11:24.541Z,1006.03
2023-09-08T04:12:24.520Z,1006.03
2023-09-08T04:13:24.522Z,1006.04
2023-09-08T04:14:24.512Z,1006.04
2023-09-08T04:15:24.509Z,1006.04
2023-09-08T04:16:24.505Z,1006.04
2023-09-08T04:17:24.502Z,1006.03
2023-09-08T04:18:24.582Z,1006.03
2023-09-08T04:19:24.454Z,1006.02
2023-09-08T04:20:24.448Z,1006.01
2023-09-08T04:21:24.497Z,1006.01
2023-09-08T04:22:24.415Z,1006.01
2023-09-08T04:23:24.340Z,1006.01
2023-09-08T04:24:24.419Z,1006.01
2023-09-08T04:25:24.385Z,1006.01
2023-09-08T04:26:24.315Z,1006.00
2023-09-08T04:27:24.391Z,1006.00
2023-09-08T04:28:24.323Z,1006.00
2023-09-08T04:29:24.311Z,1006.02
2023-09-08T04:30:24.299Z,1006.03
2023-09-08T04:31:24.288Z,1006.03
2023-09-08T04:32:24.263Z,1006.04
2023-09-08T04:33:24.339Z,1006.03
2023-09-08T04:34:24.309Z,1006.03
2023-09-08T04:35:24.314Z,1006.04
2023-09-08T04:36:24.222Z,1006.04
2023-09-08T04:37:24.221Z,1006.04
2023-09-08T04:38:24.294Z,1006.05
2023-09-08T04:39:24.282Z,1006.06
2023-09-08T04:40:24.189Z,1006.07
2023-09-08T04:41:24.199Z,1006.08
2023-09-08T04:42:24.174Z,1006.08
2023-09-08T04:43:24.178Z,1006.09
2023-09-08T04:44:24.324Z,1006.10
2023-09-08T04:45:24.196Z,1006.09
2023-09-08T04:46:24.146Z,1006.08
2023-09-08T04:47:24.507Z,1006.08
2023-09-08T04:48:24.111Z,1006.07
2023-09-08T04:49:24.187Z,1006.07
2023-09-08T04:50:24.951Z,1006.07
2023-09-08T04:51:24.115Z,1006.06
2023-09-08T04:52:24.076Z,1006.06
2023-09-08T04:53:24.173Z,1006.06
2023-09-08T04:54:24.033Z,1006.06
2023-09-08T04:55:24.044Z,1006.06
2023-09-08T04:56:28.229Z,1006.07
2023-09-08T04:57:24.298Z,1006.08
2023-09-08T04:58:24.471Z,1006.09
2023-09-08T04:59:25.610Z,1006.10
2023-09-08T05:00:23.982Z,1006.11
2023-09-08T05:01:24.026Z,1006.13
2023-09-08T05:02:24.245Z,1006.13
2023-09-08T05:03:24.086Z,1006.13
2023-09-08T05:04:23.996Z,1006.12
2023-09-08T05:05:24.029Z,1006.14
2023-09-08T05:06:23.939Z,1006.14
2023-09-08T05:07:23.896Z,1006.14
2023-09-08T05:08:23.898Z,1006.14
2023-09-08T05:09:23.876Z,1006.14
2023-09-08T05:10:23.881Z,1006.15
2023-09-08T05:11:23.864Z,1006.15
2023-09-08T05:12:24.086Z,1006.15
2023-09-08T05:13:30.873Z,1006.15
2023-09-08T05:14:23.836Z,1006.15
2023-09-08T05:15:23.860Z,1006.15
2023-09-08T05:16:24.731Z,1006.13
2023-09-08T05:17:23.922Z,1006.14
2023-09-08T05:18:23.890Z,1006.13
2023-09-08T05:19:23.896Z,1006.13
2023-09-08T05:20:23.822Z,1006.13
2023-09-08T05:21:24.594Z,1006.13
2023-09-08T05:22:25.973Z,1006.13
2023-09-08T05:23:23.861Z,1006.13
2023-09-08T05:24:23.890Z,1006.14
2023-09-08T05:25:23.887Z,1006.14
2023-09-08T05:26:23.870Z,1006.14
2023-09-08T05:27:23.763Z,1006.14
2023-09-08T05:28:23.725Z,1006.15
2023-09-08T05:29:23.764Z,1006.15
2023-09-08T05:30:23.824Z,1006.14
2023-09-08T05:31:23.915Z,1006.13
2023-09-08T05:32:23.716Z,1006.11
2023-09-08T05:33:23.934Z,1006.10
2023-09-08T05:34:23.657Z,1006.09
2023-09-08T05:35:23.695Z,1006.07
2023-09-08T05:36:23.629Z,1006.06
2023-09-08T05:37:23.742Z,1006.05
2023-09-08T05:38:23.638Z,1006.04
2023-09-08T05:39:23.617Z,1006.03
2023-09-08T05:40:23.676Z,1006.04
2023-09-08T05:41:23.619Z,1006.03
2023-09-08T06:38:04.147Z,1006.22
2023-09-08T07:06:47.805Z,1006.28
2023-09-08T07:07:21.735Z,1006.27
2023-09-08T07:08:21.724Z,1006.28
2023-09-08T07:11:07.835Z,1006.28
2023-09-08T07:12:08.439Z,1006.29
2023-09-08T07:29:45.122Z,1006.22
2023-09-08T07:30:46.111Z,1006.22
2023-09-08T07:46:53.587Z,1006.21
2023-09-08T07:47:54.366Z,1006.21
2023-09-08T07:48:54.497Z,1006.21
2023-09-08T07:49:54.406Z,1006.19
2023-09-08T07:50:54.394Z,1006.19
2023-09-08T07:51:54.336Z,1006.19
2023-09-08T07:52:54.371Z,1006.18
2023-09-08T07:59:26.551Z,1006.13
2023-09-08T08:00:27.510Z,1006.12
2023-09-08T08:01:27.534Z,1006.11
2023-09-08T08:02:27.420Z,1006.11
2023-09-08T08:03:27.445Z,1006.11
2023-09-08T08:04:27.480Z,1006.11
2023-09-08T08:05:27.444Z,1006.11
2023-09-08T08:06:27.386Z,1006.11
2023-09-08T08:07:27.388Z,1006.11
2023-09-08T08:08:27.460Z,1006.11
2023-09-08T08:13:43.480Z,1006.11
2023-09-08T08:14:44.320Z,1006.10
2023-09-08T09:37:14.487Z,1006.10
2023-09-08T09:38:15.494Z,1006.08
2023-09-08T09:39:15.482Z,1006.07
2023-09-08T09:40:15.485Z,1006.08
2023-09-08T09:41:15.372Z,1006.09
2023-09-08T09:42:17.222Z,1006.08
2023-09-08T09:43:15.423Z,1006.07
2023-09-08T09:44:15.331Z,1006.06
2023-09-08T09:45:15.320Z,1006.06
2023-09-08T09:46:15.403Z,1006.03
2023-09-08T09:49:18.814Z,1006.03
2023-09-08T09:50:19.753Z,1006.04
2023-09-08T09:51:19.854Z,1006.03
2023-09-08T09:52:19.638Z,1006.05
2023-09-08T09:53:19.799Z,1006.04
2023-09-08T09:54:19.744Z,1006.03
2023-09-08T09:55:19.658Z,1006.03
2023-09-08T09:56:19.722Z,1006.02
2023-09-08T09:57:19.597Z,1006.04
2023-09-08T09:58:19.663Z,1006.05
2023-09-08T10:33:26.125Z,1005.90
2023-09-08T10:34:27.000Z,1005.89
2023-09-08T10:35:26.946Z,1005.89
2023-09-08T10:36:27.085Z,1005.90
2023-09-08T10:37:26.997Z,1005.91
2023-09-08T10:38:27.087Z,1005.89
2023-09-08T10:39:26.977Z,1005.90
2023-09-08T10:42:20.793Z,1005.88
2023-09-08T10:43:21.442Z,1005.88
2023-09-08T10:44:21.122Z,1005.90
2023-09-08T10:45:21.201Z,1005.90
2023-09-08T10:52:31.774Z,1005.92
2023-09-08T10:53:32.817Z,1005.91
2023-09-08T12:57:16.154Z,1005.39
2023-09-08T12:58:17.449Z,1005.39
2023-09-08T12:59:17.115Z,1005.40
2023-09-08T13:00:17.101Z,1005.40
2023-09-08T13:01:17.104Z,1005.39
2023-09-08T13:02:17.040Z,1005.39
2023-09-08T13:03:17.048Z,1005.37
2023-09-08T13:04:17.048Z,1005.36
2023-09-08T13:05:17.030Z,1005.35
2023-09-08T13:06:16.987Z,1005.35
2023-09-08T13:07:17.494Z,1005.34
2023-09-08T13:08:17.140Z,1005.33
2023-09-08T13:09:17.072Z,1005.32
2023-09-08T13:10:17.085Z,1005.32
2023-09-08T13:11:16.977Z,1005.31
2023-09-08T13:15:47.031Z,1005.30
2023-09-08T13:18:18.367Z,1005.29
2023-09-08T13:19:19.078Z,1005.28
2023-09-08T13:20:19.220Z,1005.27
2023-09-08T13:28:28.562Z,1005.20
2023-09-08T13:29:29.346Z,1005.20
2023-09-08T13:30:29.208Z,1005.20
2023-09-08T13:44:04.220Z,1005.10
2023-09-08T13:45:03.576Z,1005.09
2023-09-08T13:46:02.863Z,1005.09
2023-09-08T13:54:34.701Z,1005.07
2023-09-08T14:24:01.079Z,1005.00
2023-09-08T14:25:00.801Z,1004.98
2023-09-08T14:26:00.890Z,1004.96
2023-09-08T14:28:42.633Z,1004.95
2023-09-08T14:29:43.712Z,1004.93
2023-09-08T14:30:43.594Z,1004.94
2023-09-08T14:31:43.839Z,1004.93
2023-09-08T14:32:43.713Z,1004.94
2023-09-08T14:33:43.565Z,1004.93
2023-09-08T14:34:43.506Z,1004.94
2023-09-08T14:35:43.624Z,1004.95
2023-09-08T14:36:43.484Z,1004.94
2023-09-08T14:37:43.648Z,1004.93
2023-09-08T14:38:43.573Z,1004.92
2023-09-08T14:39:43.450Z,1004.91
2023-09-08T14:40:43.427Z,1004.92
2023-09-08T14:41:43.420Z,1004.91
2023-09-08T14:42:43.432Z,1004.90
2023-09-08T14:43:43.430Z,1004.90
2023-09-08T14:44:43.400Z,1004.90
2023-09-08T14:45:43.383Z,1004.89
2023-09-08T14:46:43.479Z,1004.89
2023-09-08T14:47:43.483Z,1004.89
2023-09-08T14:48:43.459Z,1004.89
2023-09-08T14:49:43.457Z,1004.88
2023-09-08T14:50:43.480Z,1004.88
2023-09-08T14:51:43.342Z,1004.87
2023-09-08T14:52:43.312Z,1004.86
2023-09-08T14:53:43.412Z,1004.85
2023-09-08T14:54:43.283Z,1004.83
2023-09-08T14:55:43.707Z,1004.82
2023-09-08T14:56:43.274Z,1004.81
2023-09-08T14:57:43.371Z,1004.79
2023-09-08T14:58:43.298Z,1004.78
2023-09-08T14:59:43.293Z,1004.79
2023-09-08T15:00:43.410Z,1004.79
2023-09-08T15:01:43.328Z,1004.78
2023-09-08T15:02:43.243Z,1004.77
2023-09-08T15:03:43.305Z,1004.78
2023-09-08T15:04:43.195Z,1004.77
2023-09-08T15:05:43.265Z,1004.76
2023-09-08T15:06:43.186Z,1004.75
2023-09-08T15:07:43.158Z,1004.75
2023-09-08T15:08:43.153Z,1004.75
2023-09-08T15:09:43.196Z,1004.75
2023-09-08T15:10:43.184Z,1004.75
2023-09-08T15:11:43.139Z,1004.75
2023-09-08T15:12:43.116Z,1004.75
2023-09-08T15:13:43.134Z,1004.76
2023-09-08T15:14:43.094Z,1004.77
2023-09-08T15:15:43.100Z,1004.76
2023-09-08T15:16:43.168Z,1004.77
2023-09-08T15:17:43.097Z,1004.77
2023-09-08T15:18:43.057Z,1004.77
2023-09-08T15:19:43.051Z,1004.76
2023-09-08T15:20:43.046Z,1004.75
2023-09-08T15:21:43.061Z,1004.75
2023-09-08T15:22:43.035Z,1004.75
2023-09-08T15:23:42.992Z,1004.75
2023-09-08T15:24:42.977Z,1004.73
2023-09-08T15:25:43.086Z,1004.72
2023-09-08T15:26:43.029Z,1004.72
2023-09-08T15:27:42.958Z,1004.71
2023-09-08T15:28:42.934Z,1004.70
2023-09-08T15:29:42.953Z,1004.69
2023-09-08T15:30:43.022Z,1004.68
2023-09-08T15:31:43.101Z,1004.68
2023-09-08T15:32:42.953Z,1004.68
2023-09-08T15:33:43.007Z,1004.67
2023-09-08T15:34:42.890Z,1004.66
2023-09-08T15:35:42.905Z,1004.65
2023-09-08T15:36:42.942Z,1004.65
2023-09-08T15:37:42.894Z,1004.65
2023-09-08T15:38:42.844Z,1004.66
2023-09-08T15:39:42.931Z,1004.64
2023-09-08T15:40:42.993Z,1004.64
2023-09-08T15:41:42.817Z,1004.64
2023-09-08T15:42:42.853Z,1004.62
2023-09-08T15:43:42.805Z,1004.63
2023-09-08T15:44:42.806Z,1004.62
2023-09-08T15:45:42.877Z,1004.63
2023-09-08T15:46:42.894Z,1004.62
2023-09-08T15:47:42.823Z,1004.62
2023-09-08T15:48:42.792Z,1004.64
2023-09-08T15:49:42.845Z,1004.64
2023-09-08T15:50:42.742Z,1004.65
2023-09-08T15:51:42.784Z,1004.65
2023-09-08T15:52:42.718Z,1004.64
2023-09-08T15:53:42.773Z,1004.63
2023-09-08T15:54:42.715Z,1004.62
2023-09-08T15:55:42.724Z,1004.62
2023-09-08T15:56:44.362Z,1004.62
2023-09-08T15:57:42.711Z,1004.63
2023-09-08T15:58:42.854Z,1004.64
2023-09-08T15:59:42.635Z,1004.64
2023-09-08T16:00:42.780Z,1004.65
2023-09-08T16:01:42.801Z,1004.65
2023-09-08T16:02:42.669Z,1004.64
2023-09-08T16:03:43.031Z,1004.64
2023-09-08T16:04:42.680Z,1004.63
2023-09-08T16:05:42.586Z,1004.62
2023-09-08T16:06:42.634Z,1004.62
2023-09-08T16:07:42.606Z,1004.61
2023-09-08T16:08:42.540Z,1004.60
2023-09-08T16:09:42.593Z,1004.59
2023-09-08T16:10:42.533Z,1004.59
2023-09-08T16:11:42.568Z,1004.58
2023-09-08T16:12:42.516Z,1004.58
2023-09-08T16:13:42.558Z,1004.58
2023-09-08T16:14:42.585Z,1004.57
2023-09-08T16:15:42.491Z,1004.57
2023-09-08T16:16:42.554Z,1004.57
2023-09-08T16:17:42.511Z,1004.57
2023-09-08T16:18:42.442Z,1004.57
2023-09-08T16:19:42.488Z,1004.57
2023-09-08T16:20:42.490Z,1004.58
2023-09-08T16:21:42.404Z,1004.59
2023-09-08T16:22:42.430Z,1004.60
2023-09-08T16:23:42.411Z,1004.59
2023-09-08T16:24:42.553Z,1004.59
2023-09-08T16:25:42.381Z,1004.58
2023-09-08T16:26:42.410Z,1004.58
2023-09-08T16:27:42.430Z,1004.58
2023-09-08T16:28:42.341Z,1004.58
2023-09-08T16:29:42.332Z,1004.57
2023-09-08T16:30:42.404Z,1004.58
2023-09-08T16:31:42.353Z,1004.57
2023-09-08T16:32:42.306Z,1004.57
2023-09-08T16:33:42.319Z,1004.57
2023-09-08T16:34:42.344Z,1004.56
2023-09-08T16:35:42.293Z,1004.56
2023-09-08T16:36:42.355Z,1004.57
2023-09-08T16:37:42.268Z,1004.57
2023-09-08T16:38:42.245Z,1004.56
2023-09-08T16:39:42.368Z,1004.56
2023-09-08T16:40:42.257Z,1004.56
2023-09-08T16:41:42.209Z,1004.55
2023-09-08T16:42:42.278Z,1004.55
2023-09-08T16:43:42.183Z,1004.55
2023-09-08T16:44:42.207Z,1004.55
2023-09-08T16:45:42.180Z,1004.55
2023-09-08T16:46:42.198Z,1004.55
2023-09-08T16:47:42.166Z,1004.56
2023-09-08T16:48:42.191Z,1004.56
2023-09-08T16:49:42.758Z,1004.56
2023-09-08T16:50:42.109Z,1004.57
2023-09-08T16:51:42.106Z,1004.58
2023-09-08T16:52:42.130Z,1004.59
2023-09-08T16:53:42.067Z,1004.60
2023-09-08T16:54:42.103Z,1004.60
2023-09-08T16:55:42.060Z,1004.60
2023-09-08T16:56:42.047Z,1004.60
2023-09-08T16:57:42.046Z,1004.59
2023-09-08T16:58:42.038Z,1004.59
2023-09-08T16:59:42.107Z,1004.58
2023-09-08T17:00:42.007Z,1004.58
2023-09-08T17:01:42.044Z,1004.57
2023-09-08T17:02:42.150Z,1004.57
2023-09-08T17:03:42.530Z,1004.57
2023-09-08T17:04:41.968Z,1004.57
2023-09-08T17:05:44.033Z,1004.57
2023-09-08T17:06:42.023Z,1004.57
2023-09-08T17:07:41.931Z,1004.58
2023-09-08T17:08:41.935Z,1004.58
2023-09-08T17:09:41.973Z,1004.58
2023-09-08T17:10:41.933Z,1004.58
2023-09-08T17:11:41.899Z,1004.57
2023-09-08T17:12:41.904Z,1004.57
2023-09-08T17:13:41.867Z,1004.58
2023-09-08T17:14:41.878Z,1004.59
2023-09-08T17:15:41.922Z,1004.60
2023-09-08T17:16:41.858Z,1004.60
2023-09-08T17:17:41.897Z,1004.60
2023-09-08T17:18:41.898Z,1004.60
2023-09-08T17:19:41.811Z,1004.61
2023-09-08T17:20:41.835Z,1004.61
2023-09-08T17:21:41.801Z,1004.61
2023-09-08T17:22:41.793Z,1004.61
2023-09-08T17:23:41.800Z,1004.62
2023-09-08T17:24:41.762Z,1004.61
2023-09-08T17:25:41.774Z,1004.62
2023-09-08T17:26:41.870Z,1004.61
2023-09-08T17:27:41.768Z,1004.61
2023-09-08T17:28:41.728Z,1004.61
2023-09-08T17:29:41.696Z,1004.61
2023-09-08T17:30:41.714Z,1004.61
2023-09-08T17:31:41.695Z,1004.62
2023-09-08T17:32:41.738Z,1004.63
2023-09-08T17:33:41.676Z,1004.64
2023-09-08T17:34:41.671Z,1004.64
2023-09-08T17:35:41.639Z,1004.65
2023-09-08T17:36:41.636Z,1004.64
2023-09-08T17:37:41.635Z,1004.64
2023-09-08T17:38:41.625Z,1004.64
2023-09-08T17:39:41.604Z,1004.63
2023-09-08T17:40:41.596Z,1004.62
2023-09-08T17:41:41.578Z,1004.61
2023-09-08T17:42:41.586Z,1004.61
2023-09-08T17:43:41.617Z,1004.61
2023-09-08T17:44:41.555Z,1004.61
2023-09-08T17:45:41.644Z,1004.62
2023-09-08T17:46:41.600Z,1004.65
2023-09-08T17:47:41.586Z,1004.67
2023-09-08T17:48:41.548Z,1004.69
2023-09-08T17:49:41.531Z,1004.70
2023-09-08T17:50:41.513Z,1004.72
2023-09-08T17:51:41.491Z,1004.73
2023-09-08T17:52:41.538Z,1004.74
2023-09-08T17:53:41.474Z,1004.75
2023-09-08T17:54:41.498Z,1004.76
2023-09-08T17:55:41.524Z,1004.77
2023-09-08T17:56:41.443Z,1004.78
2023-09-08T17:57:41.472Z,1004.79
2023-09-08T17:58:41.478Z,1004.80
2023-09-08T17:59:41.402Z,1004.82
2023-09-08T18:00:41.473Z,1004.82
2023-09-08T18:01:41.437Z,1004.83
2023-09-08T18:02:41.502Z,1004.84
2023-09-08T18:03:41.782Z,1004.85
2023-09-08T18:04:41.419Z,1004.85
2023-09-08T18:05:41.350Z,1004.86
2023-09-08T18:06:41.344Z,1004.86
2023-09-08T18:07:41.377Z,1004.87
2023-09-08T18:08:41.342Z,1004.87
2023-09-08T18:09:41.306Z,1004.87
2023-09-08T18:10:41.337Z,1004.87
2023-09-08T18:11:41.281Z,1004.87
2023-09-08T18:12:41.323Z,1004.88
2023-09-08T18:13:41.508Z,1004.88
2023-09-08T18:14:41.278Z,1004.88
2023-09-08T18:15:41.320Z,1004.88
2023-09-08T18:16:41.333Z,1004.89
2023-09-08T18:17:41.311Z,1004.89
2023-09-08T18:18:41.230Z,1004.89
2023-09-08T18:19:41.251Z,1004.90
2023-09-08T18:20:41.237Z,1004.91
2023-09-08T18:21:41.212Z,1004.92
2023-09-08T18:22:41.236Z,1004.93
2023-09-08T18:23:41.184Z,1004.94
2023-09-08T18:24:41.159Z,1004.95
2023-09-08T18:25:41.172Z,1004.96
2023-09-08T18:26:41.155Z,1004.96
2023-09-08T18:27:41.148Z,1004.96
2023-09-08T18:28:41.149Z,1004.96
2023-09-08T18:29:41.190Z,1004.97
2023-09-08T18:30:41.166Z,1004.97
2023-09-08T18:31:41.248Z,1004.98
2023-09-08T18:32:41.185Z,1004.99
2023-09-08T18:33:41.151Z,1004.99
2023-09-08T18:34:41.097Z,1004.99
2023-09-08T18:35:41.134Z,1005.00
2023-09-08T18:36:41.089Z,1004.99
2023-09-08T18:37:41.087Z,1004.99
2023-09-08T18:38:41.116Z,1005.00
2023-09-08T18:39:41.057Z,1005.00
2023-09-08T18:40:41.092Z,1005.00
2023-09-08T18:41:41.113Z,1005.00
2023-09-08T18:42:41.042Z,1005.00
2023-09-08T18:43:41.016Z,1005.01
2023-09-08T18:44:41.000Z,1005.03
2023-09-08T18:45:41.023Z,1005.04
2023-09-08T18:46:41.037Z,1005.05
2023-09-08T18:47:40.989Z,1005.05
2023-09-08T18:48:41.006Z,1005.06
2023-09-08T18:49:40.961Z,1005.07
2023-09-08T18:50:40.962Z,1005.08
2023-09-08T18:51:40.933Z,1005.08
2023-09-08T18:52:40.926Z,1005.08
2023-09-08T18:53:40.903Z,1005.08
2023-09-08T18:54:40.899Z,1005.08
2023-09-08T18:55:41.139Z,1005.08
2023-09-08T18:56:40.822Z,1005.07
2023-09-08T18:57:40.871Z,1005.08
2023-09-08T18:58:40.852Z,1005.08
2023-09-08T18:59:40.873Z,1005.09
2023-09-08T19:00:40.852Z,1005.09
2023-09-08T19:01:40.821Z,1005.09
2023-09-08T19:02:40.993Z,1005.10
2023-09-08T19:03:40.842Z,1005.10
2023-09-08T19:04:40.905Z,1005.11
2023-09-08T19:05:40.791Z,1005.12
2023-09-08T19:06:40.781Z,1005.13
2023-09-08T19:07:40.882Z,1005.14
2023-09-08T19:08:40.746Z,1005.14
2023-09-08T19:09:40.732Z,1005.14
2023-09-08T19:10:40.787Z,1005.14
2023-09-08T19:11:40.803Z,1005.14
2023-09-08T19:12:40.675Z,1005.14
2023-09-08T19:13:40.722Z,1005.14
2023-09-08T19:14:40.734Z,1005.14
2023-09-08T19:15:40.686Z,1005.13
2023-09-08T19:16:41.146Z,1005.13
2023-09-08T19:17:40.848Z,1005.11
2023-09-08T19:18:40.703Z,1005.11
2023-09-08T19:19:40.655Z,1005.09
2023-09-08T19:20:40.634Z,1005.08
2023-09-08T19:21:40.622Z,1005.08
2023-09-08T19:22:40.646Z,1005.07